Главная страница
METAR-TAF:

METAR-TAF

Аэропорты :

Гейтерсберг, Мэриленд, США

широта: 39-10-06N, долгота: 077-09-58W, высота над уровнем моря: 164 м

Текущие метеонаблюдения

Эта сводка был подготовлена 6 минут назад, в 20:56 UTC
Ветер 4 Узел от восточный
Температура 25°C
Влажность 79%
Давление 1019 hPa
Видимость: 16.1 км
Рассеянная облачность на высоте 1800 фута
Рассеянная облачность на высоте 2500 фута
Сплошная облачность на высоте 3100 фута

METAR: KGAI 202056Z AUTO 09004KT 10SM BKN018 BKN025 OVC031 25/21 A3010 RMK AO2 SLP214 T02500211 56005

Время: 17:02 (21:02 UTC)


TAF: отсутствует

Метеонаблюдения и прогнозы для более 4000 аэропортов (сводки METAR и TAF).

Имеющиеся станции представлены на карте желтыми и красными точками.

Чтобы увидеть название станции, наведите на нее мышь.

Затем щелкните, чтобы увидеть метеонаблюдения и метеопрогнозы.

Управление картой: чтобы увеличить масштаб, щелкните зеленые кнопки с черным крестиком; чтобы уменьшить масштаб, щелкните зеленую кнопку с тире; для просмотра соседних карт щелкайте зеленые стрелки.


METAR-TAF: